sensor_id;sensor_type;location;lat;lon;timestamp;P1;durP1;ratioP1;P2;durP2;ratioP2
12519;SDS011;6325;49.540;8.364;2024-03-25T00:01:05;1.52;;;1.42;;
12519;SDS011;6325;49.540;8.364;2024-03-25T00:03:30;1.87;;;1.50;;
12519;SDS011;6325;49.540;8.364;2024-03-25T00:05:57;1.70;;;1.50;;
12519;SDS011;6325;49.540;8.364;2024-03-25T00:08:23;2.35;;;1.60;;
12519;SDS011;6325;49.540;8.364;2024-03-25T00:10:49;1.63;;;1.50;;
12519;SDS011;6325;49.540;8.364;2024-03-25T00:13:15;2.00;;;1.63;;
12519;SDS011;6325;49.540;8.364;2024-03-25T00:15:42;1.65;;;1.50;;
12519;SDS011;6325;49.540;8.364;2024-03-25T00:18:10;1.50;;;1.40;;
12519;SDS011;6325;49.540;8.364;2024-03-25T00:20:37;1.77;;;1.67;;
12519;SDS011;6325;49.540;8.364;2024-03-25T00:23:03;1.63;;;1.52;;
12519;SDS011;6325;49.540;8.364;2024-03-25T00:25:30;1.57;;;1.47;;
12519;SDS011;6325;49.540;8.364;2024-03-25T00:27:56;1.67;;;1.52;;
12519;SDS011;6325;49.540;8.364;2024-03-25T00:30:23;2.30;;;1.80;;
12519;SDS011;6325;49.540;8.364;2024-03-25T00:32:49;2.17;;;1.70;;
12519;SDS011;6325;49.540;8.364;2024-03-25T00:35:18;1.77;;;1.63;;
12519;SDS011;6325;49.540;8.364;2024-03-25T00:37:43;2.05;;;1.85;;
12519;SDS011;6325;49.540;8.364;2024-03-25T00:40:11;1.90;;;1.70;;
12519;SDS011;6325;49.540;8.364;2024-03-25T00:42:37;2.00;;;1.67;;
12519;SDS011;6325;49.540;8.364;2024-03-25T00:45:04;1.80;;;1.60;;
12519;SDS011;6325;49.540;8.364;2024-03-25T00:47:30;1.85;;;1.75;;
12519;SDS011;6325;49.540;8.364;2024-03-25T00:49:57;1.65;;;1.55;;
12519;SDS011;6325;49.540;8.364;2024-03-25T00:52:25;2.23;;;2.00;;
12519;SDS011;6325;49.540;8.364;2024-03-25T00:54:52;2.38;;;1.60;;
12519;SDS011;6325;49.540;8.364;2024-03-25T00:57:17;1.80;;;1.70;;
12519;SDS011;6325;49.540;8.364;2024-03-25T00:59:44;2.33;;;1.75;;
12519;SDS011;6325;49.540;8.364;2024-03-25T01:02:10;1.88;;;1.70;;
12519;SDS011;6325;49.540;8.364;2024-03-25T01:04:37;1.70;;;1.60;;
12519;SDS011;6325;49.540;8.364;2024-03-25T01:07:02;1.70;;;1.60;;
12519;SDS011;6325;49.540;8.364;2024-03-25T01:09:31;2.40;;;1.67;;
12519;SDS011;6325;49.540;8.364;2024-03-25T01:11:57;2.08;;;1.80;;
12519;SDS011;6325;49.540;8.364;2024-03-25T01:14:23;2.80;;;2.15;;
12519;SDS011;6325;49.540;8.364;2024-03-25T01:16:49;2.50;;;1.80;;
12519;SDS011;6325;49.540;8.364;2024-03-25T01:19:16;3.45;;;2.60;;
12519;SDS011;6325;49.540;8.364;2024-03-25T01:21:41;6.27;;;3.57;;
12519;SDS011;6325;49.540;8.364;2024-03-25T01:24:09;3.63;;;2.70;;
12519;SDS011;6325;49.540;8.364;2024-03-25T01:26:36;1.90;;;1.70;;
12519;SDS011;6325;49.540;8.364;2024-03-25T01:29:03;1.92;;;1.77;;
12519;SDS011;6325;49.540;8.364;2024-03-25T01:31:28;1.97;;;1.77;;
12519;SDS011;6325;49.540;8.364;2024-03-25T01:33:55;2.50;;;1.60;;
12519;SDS011;6325;49.540;8.364;2024-03-25T01:36:21;1.95;;;1.75;;
12519;SDS011;6325;49.540;8.364;2024-03-25T01:38:48;2.53;;;1.98;;
12519;SDS011;6325;49.540;8.364;2024-03-25T01:41:13;1.63;;;1.52;;
12519;SDS011;6325;49.540;8.364;2024-03-25T01:43:47;2.17;;;1.60;;
12519;SDS011;6325;49.540;8.364;2024-03-25T01:46:12;1.90;;;1.70;;
12519;SDS011;6325;49.540;8.364;2024-03-25T01:48:41;1.73;;;1.60;;
12519;SDS011;6325;49.540;8.364;2024-03-25T01:51:07;3.50;;;2.40;;
12519;SDS011;6325;49.540;8.364;2024-03-25T01:53:34;2.15;;;1.80;;
12519;SDS011;6325;49.540;8.364;2024-03-25T01:55:59;5.53;;;3.00;;
12519;SDS011;6325;49.540;8.364;2024-03-25T01:58:27;6.75;;;3.78;;
12519;SDS011;6325;49.540;8.364;2024-03-25T02:00:54;7.38;;;4.00;;
12519;SDS011;6325;49.540;8.364;2024-03-25T02:03:21;9.27;;;4.05;;
12519;SDS011;6325;49.540;8.364;2024-03-25T02:05:48;6.10;;;3.40;;
12519;SDS011;6325;49.540;8.364;2024-03-25T02:08:18;5.60;;;3.80;;
12519;SDS011;6325;49.540;8.364;2024-03-25T02:10:44;6.22;;;3.80;;
12519;SDS011;6325;49.540;8.364;2024-03-25T02:13:12;5.03;;;2.72;;
12519;SDS011;6325;49.540;8.364;2024-03-25T02:15:39;2.97;;;2.30;;
12519;SDS011;6325;49.540;8.364;2024-03-25T02:18:08;2.38;;;2.10;;
12519;SDS011;6325;49.540;8.364;2024-03-25T02:20:34;2.10;;;1.90;;
12519;SDS011;6325;49.540;8.364;2024-03-25T02:23:01;2.03;;;1.83;;
12519;SDS011;6325;49.540;8.364;2024-03-25T02:25:27;2.87;;;1.80;;
12519;SDS011;6325;49.540;8.364;2024-03-25T02:27:58;1.97;;;1.80;;
12519;SDS011;6325;49.540;8.364;2024-03-25T02:30:24;2.03;;;1.93;;
12519;SDS011;6325;49.540;8.364;2024-03-25T02:32:51;1.95;;;1.85;;
12519;SDS011;6325;49.540;8.364;2024-03-25T02:35:16;2.78;;;1.90;;
12519;SDS011;6325;49.540;8.364;2024-03-25T02:37:43;2.65;;;1.80;;
12519;SDS011;6325;49.540;8.364;2024-03-25T02:40:09;1.90;;;1.70;;
12519;SDS011;6325;49.540;8.364;2024-03-25T02:42:36;2.05;;;1.80;;
12519;SDS011;6325;49.540;8.364;2024-03-25T02:45:06;2.35;;;1.77;;
12519;SDS011;6325;49.540;8.364;2024-03-25T02:47:34;2.38;;;1.83;;
12519;SDS011;6325;49.540;8.364;2024-03-25T02:50:00;3.50;;;2.20;;
12519;SDS011;6325;49.540;8.364;2024-03-25T02:52:26;2.17;;;1.98;;
12519;SDS011;6325;49.540;8.364;2024-03-25T02:54:52;2.25;;;2.08;;
12519;SDS011;6325;49.540;8.364;2024-03-25T02:57:20;2.45;;;2.13;;
12519;SDS011;6325;49.540;8.364;2024-03-25T02:59:46;3.05;;;2.13;;
12519;SDS011;6325;49.540;8.364;2024-03-25T03:02:14;3.20;;;2.63;;
12519;SDS011;6325;49.540;8.364;2024-03-25T03:04:39;6.23;;;3.73;;
12519;SDS011;6325;49.540;8.364;2024-03-25T03:07:06;5.18;;;3.50;;
12519;SDS011;6325;49.540;8.364;2024-03-25T03:09:32;5.10;;;3.08;;
12519;SDS011;6325;49.540;8.364;2024-03-25T03:11:59;4.20;;;3.40;;
12519;SDS011;6325;49.540;8.364;2024-03-25T03:14:25;5.97;;;3.45;;
12519;SDS011;6325;49.540;8.364;2024-03-25T03:16:51;7.63;;;4.10;;
12519;SDS011;6325;49.540;8.364;2024-03-25T03:19:21;4.78;;;3.25;;
12519;SDS011;6325;49.540;8.364;2024-03-25T03:21:47;6.05;;;3.78;;
12519;SDS011;6325;49.540;8.364;2024-03-25T03:24:13;7.17;;;3.70;;
12519;SDS011;6325;49.540;8.364;2024-03-25T03:26:40;2.70;;;2.30;;
12519;SDS011;6325;49.540;8.364;2024-03-25T03:29:05;2.63;;;2.20;;
12519;SDS011;6325;49.540;8.364;2024-03-25T03:31:32;2.47;;;2.13;;
12519;SDS011;6325;49.540;8.364;2024-03-25T03:33:59;2.50;;;2.08;;
12519;SDS011;6325;49.540;8.364;2024-03-25T03:36:27;2.47;;;2.00;;
12519;SDS011;6325;49.540;8.364;2024-03-25T03:38:53;2.80;;;2.15;;
12519;SDS011;6325;49.540;8.364;2024-03-25T03:41:20;5.45;;;3.33;;
12519;SDS011;6325;49.540;8.364;2024-03-25T03:43:46;7.80;;;4.07;;
12519;SDS011;6325;49.540;8.364;2024-03-25T03:46:12;5.88;;;3.47;;
12519;SDS011;6325;49.540;8.364;2024-03-25T03:48:38;7.18;;;4.20;;
12519;SDS011;6325;49.540;8.364;2024-03-25T03:51:05;6.90;;;4.20;;
12519;SDS011;6325;49.540;8.364;2024-03-25T03:53:33;8.73;;;4.60;;
12519;SDS011;6325;49.540;8.364;2024-03-25T03:56:01;7.60;;;4.30;;
12519;SDS011;6325;49.540;8.364;2024-03-25T03:58:29;8.63;;;4.65;;
12519;SDS011;6325;49.540;8.364;2024-03-25T04:00:56;7.50;;;4.10;;
12519;SDS011;6325;49.540;8.364;2024-03-25T04:03:22;4.35;;;3.13;;
12519;SDS011;6325;49.540;8.364;2024-03-25T04:05:49;3.77;;;2.60;;
12519;SDS011;6325;49.540;8.364;2024-03-25T04:08:15;2.50;;;2.05;;
12519;SDS011;6325;49.540;8.364;2024-03-25T04:10:43;2.20;;;2.00;;
12519;SDS011;6325;49.540;8.364;2024-03-25T04:13:10;2.10;;;2.00;;
12519;SDS011;6325;49.540;8.364;2024-03-25T04:15:38;1.80;;;1.70;;
12519;SDS011;6325;49.540;8.364;2024-03-25T04:18:05;2.10;;;1.90;;
12519;SDS011;6325;49.540;8.364;2024-03-25T04:20:35;2.07;;;1.80;;
12519;SDS011;6325;49.540;8.364;2024-03-25T04:23:02;2.00;;;1.80;;
12519;SDS011;6325;49.540;8.364;2024-03-25T04:25:29;1.95;;;1.85;;
12519;SDS011;6325;49.540;8.364;2024-03-25T04:27:56;2.05;;;1.95;;
12519;SDS011;6325;49.540;8.364;2024-03-25T04:30:25;2.13;;;1.92;;
12519;SDS011;6325;49.540;8.364;2024-03-25T04:32:51;1.97;;;1.87;;
12519;SDS011;6325;49.540;8.364;2024-03-25T04:35:18;2.10;;;1.90;;
12519;SDS011;6325;49.540;8.364;2024-03-25T04:37:43;2.37;;;1.97;;
12519;SDS011;6325;49.540;8.364;2024-03-25T04:40:10;2.15;;;1.98;;
12519;SDS011;6325;49.540;8.364;2024-03-25T04:42:37;2.22;;;2.05;;
12519;SDS011;6325;49.540;8.364;2024-03-25T04:45:04;2.53;;;2.30;;
12519;SDS011;6325;49.540;8.364;2024-03-25T04:47:31;2.38;;;2.17;;
12519;SDS011;6325;49.540;8.364;2024-03-25T04:49:56;2.10;;;1.90;;
12519;SDS011;6325;49.540;8.364;2024-03-25T04:52:22;2.30;;;2.20;;
12519;SDS011;6325;49.540;8.364;2024-03-25T04:54:48;2.55;;;2.35;;
12519;SDS011;6325;49.540;8.364;2024-03-25T04:57:14;2.47;;;2.27;;
12519;SDS011;6325;49.540;8.364;2024-03-25T04:59:40;2.55;;;2.35;;
12519;SDS011;6325;49.540;8.364;2024-03-25T05:02:07;2.50;;;2.30;;
12519;SDS011;6325;49.540;8.364;2024-03-25T05:04:33;2.47;;;2.38;;
12519;SDS011;6325;49.540;8.364;2024-03-25T05:06:59;2.80;;;2.40;;
12519;SDS011;6325;49.540;8.364;2024-03-25T05:09:24;3.10;;;2.50;;
12519;SDS011;6325;49.540;8.364;2024-03-25T05:11:50;2.70;;;2.50;;
12519;SDS011;6325;49.540;8.364;2024-03-25T05:14:16;3.28;;;2.97;;
12519;SDS011;6325;49.540;8.364;2024-03-25T05:16:42;2.75;;;2.53;;
12519;SDS011;6325;49.540;8.364;2024-03-25T05:19:09;3.70;;;2.70;;
12519;SDS011;6325;49.540;8.364;2024-03-25T05:21:35;2.88;;;2.67;;
12519;SDS011;6325;49.540;8.364;2024-03-25T05:24:01;2.80;;;2.60;;
12519;SDS011;6325;49.540;8.364;2024-03-25T05:26:27;2.78;;;2.58;;
12519;SDS011;6325;49.540;8.364;2024-03-25T05:28:53;3.57;;;3.27;;
12519;SDS011;6325;49.540;8.364;2024-03-25T05:31:19;3.70;;;3.40;;
12519;SDS011;6325;49.540;8.364;2024-03-25T05:33:45;3.83;;;3.20;;
12519;SDS011;6325;49.540;8.364;2024-03-25T05:36:12;3.30;;;3.10;;
12519;SDS011;6325;49.540;8.364;2024-03-25T05:38:38;3.30;;;3.00;;
12519;SDS011;6325;49.540;8.364;2024-03-25T05:41:04;3.40;;;3.10;;
12519;SDS011;6325;49.540;8.364;2024-03-25T05:43:30;3.22;;;2.92;;
12519;SDS011;6325;49.540;8.364;2024-03-25T05:45:56;3.00;;;2.80;;
12519;SDS011;6325;49.540;8.364;2024-03-25T05:48:23;3.17;;;2.97;;
12519;SDS011;6325;49.540;8.364;2024-03-25T05:50:56;3.10;;;2.80;;
12519;SDS011;6325;49.540;8.364;2024-03-25T05:53:25;3.60;;;3.25;;
12519;SDS011;6325;49.540;8.364;2024-03-25T05:55:51;3.30;;;3.00;;
12519;SDS011;6325;49.540;8.364;2024-03-25T05:58:16;3.43;;;3.13;;
12519;SDS011;6325;49.540;8.364;2024-03-25T06:00:42;3.67;;;3.38;;
12519;SDS011;6325;49.540;8.364;2024-03-25T06:03:08;3.63;;;3.33;;
12519;SDS011;6325;49.540;8.364;2024-03-25T06:05:34;3.73;;;3.30;;
12519;SDS011;6325;49.540;8.364;2024-03-25T06:08:00;3.67;;;3.38;;
12519;SDS011;6325;49.540;8.364;2024-03-25T06:10:27;3.43;;;3.13;;
12519;SDS011;6325;49.540;8.364;2024-03-25T06:12:53;3.50;;;3.20;;
12519;SDS011;6325;49.540;8.364;2024-03-25T06:15:18;3.63;;;3.33;;
12519;SDS011;6325;49.540;8.364;2024-03-25T06:17:44;4.25;;;3.70;;
12519;SDS011;6325;49.540;8.364;2024-03-25T06:20:10;3.70;;;3.33;;
12519;SDS011;6325;49.540;8.364;2024-03-25T06:22:36;3.90;;;3.53;;
12519;SDS011;6325;49.540;8.364;2024-03-25T06:25:02;4.13;;;3.72;;
12519;SDS011;6325;49.540;8.364;2024-03-25T06:27:29;3.60;;;3.30;;
12519;SDS011;6325;49.540;8.364;2024-03-25T06:29:55;3.45;;;3.15;;
12519;SDS011;6325;49.540;8.364;2024-03-25T06:32:21;3.80;;;3.33;;
12519;SDS011;6325;49.540;8.364;2024-03-25T06:35:05;3.78;;;3.22;;
12519;SDS011;6325;49.540;8.364;2024-03-25T06:37:31;4.03;;;3.30;;
12519;SDS011;6325;49.540;8.364;2024-03-25T06:39:57;4.05;;;3.42;;
12519;SDS011;6325;49.540;8.364;2024-03-25T06:42:23;3.90;;;3.53;;
12519;SDS011;6325;49.540;8.364;2024-03-25T06:44:50;3.67;;;3.35;;
12519;SDS011;6325;49.540;8.364;2024-03-25T06:47:16;4.20;;;3.80;;
12519;SDS011;6325;49.540;8.364;2024-03-25T06:49:42;3.58;;;3.08;;
12519;SDS011;6325;49.540;8.364;2024-03-25T06:52:07;4.07;;;3.67;;
12519;SDS011;6325;49.540;8.364;2024-03-25T06:54:33;4.20;;;3.80;;
12519;SDS011;6325;49.540;8.364;2024-03-25T06:56:59;4.20;;;3.78;;
12519;SDS011;6325;49.540;8.364;2024-03-25T06:59:25;4.07;;;3.67;;
12519;SDS011;6325;49.540;8.364;2024-03-25T07:01:52;4.18;;;3.83;;
12519;SDS011;6325;49.540;8.364;2024-03-25T07:04:18;4.07;;;3.60;;
12519;SDS011;6325;49.540;8.364;2024-03-25T07:06:44;4.47;;;3.70;;
12519;SDS011;6325;49.540;8.364;2024-03-25T07:09:09;3.97;;;3.58;;
12519;SDS011;6325;49.540;8.364;2024-03-25T07:11:35;3.60;;;3.30;;
12519;SDS011;6325;49.540;8.364;2024-03-25T07:14:01;4.97;;;3.78;;
12519;SDS011;6325;49.540;8.364;2024-03-25T07:16:27;4.95;;;3.90;;
12519;SDS011;6325;49.540;8.364;2024-03-25T07:18:54;5.00;;;4.10;;
12519;SDS011;6325;49.540;8.364;2024-03-25T07:21:20;3.97;;;3.65;;
12519;SDS011;6325;49.540;8.364;2024-03-25T07:23:46;4.07;;;3.57;;
12519;SDS011;6325;49.540;8.364;2024-03-25T07:26:11;4.20;;;3.60;;
12519;SDS011;6325;49.540;8.364;2024-03-25T07:28:37;4.45;;;3.72;;
12519;SDS011;6325;49.540;8.364;2024-03-25T07:31:03;4.00;;;3.60;;
12519;SDS011;6325;49.540;8.364;2024-03-25T07:33:29;3.55;;;3.25;;
12519;SDS011;6325;49.540;8.364;2024-03-25T07:35:56;3.22;;;2.92;;
12519;SDS011;6325;49.540;8.364;2024-03-25T07:38:22;3.38;;;2.85;;
12519;SDS011;6325;49.540;8.364;2024-03-25T07:40:48;3.28;;;2.97;;
12519;SDS011;6325;49.540;8.364;2024-03-25T07:43:13;2.90;;;2.70;;
12519;SDS011;6325;49.540;8.364;2024-03-25T07:45:39;3.75;;;3.42;;
12519;SDS011;6325;49.540;8.364;2024-03-25T07:48:05;3.40;;;3.10;;
12519;SDS011;6325;49.540;8.364;2024-03-25T07:50:32;3.70;;;3.20;;
12519;SDS011;6325;49.540;8.364;2024-03-25T07:52:59;3.55;;;3.20;;
12519;SDS011;6325;49.540;8.364;2024-03-25T07:55:25;3.95;;;3.55;;
12519;SDS011;6325;49.540;8.364;2024-03-25T07:57:51;3.45;;;3.13;;
12519;SDS011;6325;49.540;8.364;2024-03-25T08:00:17;3.40;;;3.10;;
12519;SDS011;6325;49.540;8.364;2024-03-25T08:02:43;3.75;;;3.20;;
12519;SDS011;6325;49.540;8.364;2024-03-25T08:05:09;3.50;;;3.10;;
12519;SDS011;6325;49.540;8.364;2024-03-25T08:07:34;3.60;;;3.30;;
12519;SDS011;6325;49.540;8.364;2024-03-25T08:10:01;3.60;;;3.30;;
12519;SDS011;6325;49.540;8.364;2024-03-25T08:12:28;3.40;;;3.10;;
12519;SDS011;6325;49.540;8.364;2024-03-25T08:14:53;3.38;;;3.10;;
12519;SDS011;6325;49.540;8.364;2024-03-25T08:17:19;3.60;;;3.30;;
12519;SDS011;6325;49.540;8.364;2024-03-25T08:19:45;4.15;;;3.22;;
12519;SDS011;6325;49.540;8.364;2024-03-25T08:22:11;3.70;;;3.22;;
12519;SDS011;6325;49.540;8.364;2024-03-25T08:24:37;4.47;;;3.50;;
12519;SDS011;6325;49.540;8.364;2024-03-25T08:27:04;3.40;;;3.10;;
12519;SDS011;6325;49.540;8.364;2024-03-25T08:29:30;3.40;;;3.10;;
12519;SDS011;6325;49.540;8.364;2024-03-25T08:31:56;3.60;;;2.85;;
12519;SDS011;6325;49.540;8.364;2024-03-25T08:34:21;4.47;;;3.60;;
12519;SDS011;6325;49.540;8.364;2024-03-25T08:36:47;9.30;;;5.60;;
12519;SDS011;6325;49.540;8.364;2024-03-25T08:39:13;4.00;;;3.50;;
12519;SDS011;6325;49.540;8.364;2024-03-25T08:41:39;3.10;;;2.80;;
12519;SDS011;6325;49.540;8.364;2024-03-25T08:44:06;3.57;;;2.93;;
12519;SDS011;6325;49.540;8.364;2024-03-25T08:46:32;2.28;;;2.17;;
12519;SDS011;6325;49.540;8.364;2024-03-25T08:48:58;2.20;;;2.00;;
12519;SDS011;6325;49.540;8.364;2024-03-25T08:51:23;2.83;;;2.55;;
12519;SDS011;6325;49.540;8.364;2024-03-25T08:53:49;6.30;;;4.25;;
12519;SDS011;6325;49.540;8.364;2024-03-25T08:56:16;6.97;;;4.50;;
12519;SDS011;6325;49.540;8.364;2024-03-25T08:58:45;3.20;;;2.80;;
12519;SDS011;6325;49.540;8.364;2024-03-25T09:01:12;3.40;;;3.00;;
12519;SDS011;6325;49.540;8.364;2024-03-25T09:03:38;3.28;;;2.97;;
12519;SDS011;6325;49.540;8.364;2024-03-25T09:06:04;3.10;;;2.80;;
12519;SDS011;6325;49.540;8.364;2024-03-25T09:08:30;3.92;;;3.25;;
12519;SDS011;6325;49.540;8.364;2024-03-25T09:10:56;3.17;;;2.88;;
12519;SDS011;6325;49.540;8.364;2024-03-25T09:13:28;3.15;;;2.90;;
12519;SDS011;6325;49.540;8.364;2024-03-25T09:15:54;3.33;;;2.80;;
12519;SDS011;6325;49.540;8.364;2024-03-25T09:18:21;3.10;;;2.70;;
12519;SDS011;6325;49.540;8.364;2024-03-25T09:20:47;3.50;;;2.03;;
12519;SDS011;6325;49.540;8.364;2024-03-25T09:23:13;2.40;;;2.20;;
12519;SDS011;6325;49.540;8.364;2024-03-25T09:25:39;2.20;;;2.00;;
12519;SDS011;6325;49.540;8.364;2024-03-25T09:28:05;1.70;;;1.45;;
12519;SDS011;6325;49.540;8.364;2024-03-25T09:30:31;1.50;;;1.40;;
12519;SDS011;6325;49.540;8.364;2024-03-25T09:32:57;1.50;;;1.40;;
12519;SDS011;6325;49.540;8.364;2024-03-25T09:35:24;1.65;;;1.50;;
12519;SDS011;6325;49.540;8.364;2024-03-25T09:37:50;1.85;;;1.42;;
12519;SDS011;6325;49.540;8.364;2024-03-25T09:40:16;1.98;;;1.50;;
12519;SDS011;6325;49.540;8.364;2024-03-25T09:42:42;1.70;;;1.50;;
12519;SDS011;6325;49.540;8.364;2024-03-25T09:45:12;1.90;;;1.50;;
12519;SDS011;6325;49.540;8.364;2024-03-25T09:47:41;1.60;;;1.50;;
12519;SDS011;6325;49.540;8.364;2024-03-25T09:50:11;1.67;;;1.55;;
12519;SDS011;6325;49.540;8.364;2024-03-25T09:52:39;1.52;;;1.42;;
12519;SDS011;6325;49.540;8.364;2024-03-25T09:55:05;2.17;;;1.50;;
12519;SDS011;6325;49.540;8.364;2024-03-25T09:57:32;1.50;;;1.40;;
12519;SDS011;6325;49.540;8.364;2024-03-25T09:59:59;2.15;;;1.73;;
12519;SDS011;6325;49.540;8.364;2024-03-25T10:02:25;1.27;;;1.23;;
12519;SDS011;6325;49.540;8.364;2024-03-25T10:04:53;1.65;;;1.40;;
12519;SDS011;6325;49.540;8.364;2024-03-25T10:07:21;2.33;;;1.70;;
12519;SDS011;6325;49.540;8.364;2024-03-25T10:09:48;2.92;;;1.80;;
12519;SDS011;6325;49.540;8.364;2024-03-25T10:12:14;1.60;;;1.50;;
12519;SDS011;6325;49.540;8.364;2024-03-25T10:14:40;2.25;;;1.80;;
12519;SDS011;6325;49.540;8.364;2024-03-25T10:17:06;2.00;;;1.80;;
12519;SDS011;6325;49.540;8.364;2024-03-25T10:19:32;1.60;;;1.45;;
12519;SDS011;6325;49.540;8.364;2024-03-25T10:22:02;1.87;;;1.70;;
12519;SDS011;6325;49.540;8.364;2024-03-25T10:24:36;1.80;;;1.70;;
12519;SDS011;6325;49.540;8.364;2024-03-25T10:27:04;2.33;;;1.80;;
12519;SDS011;6325;49.540;8.364;2024-03-25T10:29:30;1.60;;;1.50;;
12519;SDS011;6325;49.540;8.364;2024-03-25T10:31:59;2.50;;;1.60;;
12519;SDS011;6325;49.540;8.364;2024-03-25T10:34:25;1.65;;;1.55;;
12519;SDS011;6325;49.540;8.364;2024-03-25T10:36:51;1.90;;;1.70;;
12519;SDS011;6325;49.540;8.364;2024-03-25T10:39:21;2.10;;;1.50;;
12519;SDS011;6325;49.540;8.364;2024-03-25T10:41:51;1.80;;;1.70;;
12519;SDS011;6325;49.540;8.364;2024-03-25T10:44:22;2.10;;;1.88;;
12519;SDS011;6325;49.540;8.364;2024-03-25T10:46:49;1.50;;;1.40;;
12519;SDS011;6325;49.540;8.364;2024-03-25T10:49:20;2.67;;;1.80;;
12519;SDS011;6325;49.540;8.364;2024-03-25T10:51:52;1.60;;;1.50;;
12519;SDS011;6325;49.540;8.364;2024-03-25T10:54:19;1.42;;;1.33;;
12519;SDS011;6325;49.540;8.364;2024-03-25T10:56:45;2.30;;;1.80;;
12519;SDS011;6325;49.540;8.364;2024-03-25T10:59:11;1.95;;;1.75;;
12519;SDS011;6325;49.540;8.364;2024-03-25T11:01:40;1.70;;;1.60;;
12519;SDS011;6325;49.540;8.364;2024-03-25T11:04:05;2.03;;;1.70;;
12519;SDS011;6325;49.540;8.364;2024-03-25T11:06:31;1.58;;;1.48;;
12519;SDS011;6325;49.540;8.364;2024-03-25T11:08:57;1.70;;;1.60;;
12519;SDS011;6325;49.540;8.364;2024-03-25T11:11:23;1.63;;;1.40;;
12519;SDS011;6325;49.540;8.364;2024-03-25T11:13:55;1.50;;;1.40;;
12519;SDS011;6325;49.540;8.364;2024-03-25T11:16:26;1.60;;;1.50;;
12519;SDS011;6325;49.540;8.364;2024-03-25T11:18:55;1.75;;;1.55;;
12519;SDS011;6325;49.540;8.364;2024-03-25T11:21:25;1.75;;;1.48;;
12519;SDS011;6325;49.540;8.364;2024-03-25T11:23:51;1.77;;;1.67;;
12519;SDS011;6325;49.540;8.364;2024-03-25T11:26:18;1.50;;;1.40;;
12519;SDS011;6325;49.540;8.364;2024-03-25T11:28:45;1.90;;;1.75;;
12519;SDS011;6325;49.540;8.364;2024-03-25T11:31:11;1.55;;;1.45;;
12519;SDS011;6325;49.540;8.364;2024-03-25T11:33:37;2.30;;;1.77;;
12519;SDS011;6325;49.540;8.364;2024-03-25T11:36:05;2.33;;;1.50;;
12519;SDS011;6325;49.540;8.364;2024-03-25T11:38:31;2.80;;;2.15;;
12519;SDS011;6325;49.540;8.364;2024-03-25T11:40:57;1.70;;;1.60;;
12519;SDS011;6325;49.540;8.364;2024-03-25T11:43:23;1.98;;;1.77;;
12519;SDS011;6325;49.540;8.364;2024-03-25T11:45:49;1.63;;;1.52;;
12519;SDS011;6325;49.540;8.364;2024-03-25T11:48:15;1.88;;;1.50;;
12519;SDS011;6325;49.540;8.364;2024-03-25T11:50:44;2.45;;;2.17;;
12519;SDS011;6325;49.540;8.364;2024-03-25T11:53:12;2.40;;;1.63;;
12519;SDS011;6325;49.540;8.364;2024-03-25T11:55:38;1.90;;;1.70;;
12519;SDS011;6325;49.540;8.364;2024-03-25T11:58:05;1.95;;;1.80;;
12519;SDS011;6325;49.540;8.364;2024-03-25T12:00:31;2.30;;;1.90;;
12519;SDS011;6325;49.540;8.364;2024-03-25T12:02:57;2.83;;;2.30;;
12519;SDS011;6325;49.540;8.364;2024-03-25T12:05:23;2.40;;;2.20;;
12519;SDS011;6325;49.540;8.364;2024-03-25T12:07:49;2.40;;;2.20;;
12519;SDS011;6325;49.540;8.364;2024-03-25T12:10:16;2.70;;;2.35;;
12519;SDS011;6325;49.540;8.364;2024-03-25T12:13:01;2.53;;;2.10;;
12519;SDS011;6325;49.540;8.364;2024-03-25T12:15:27;2.43;;;2.00;;
12519;SDS011;6325;49.540;8.364;2024-03-25T12:17:53;2.60;;;2.10;;
12519;SDS011;6325;49.540;8.364;2024-03-25T12:20:19;2.72;;;2.17;;
12519;SDS011;6325;49.540;8.364;2024-03-25T12:22:45;2.95;;;2.35;;
12519;SDS011;6325;49.540;8.364;2024-03-25T12:25:11;2.63;;;2.15;;
12519;SDS011;6325;49.540;8.364;2024-03-25T12:27:38;2.40;;;2.20;;
12519;SDS011;6325;49.540;8.364;2024-03-25T12:30:05;2.00;;;1.90;;
12519;SDS011;6325;49.540;8.364;2024-03-25T12:32:36;2.00;;;1.90;;
12519;SDS011;6325;49.540;8.364;2024-03-25T12:35:03;2.15;;;1.85;;
12519;SDS011;6325;49.540;8.364;2024-03-25T12:37:31;2.85;;;2.00;;
12519;SDS011;6325;49.540;8.364;2024-03-25T12:39:57;2.17;;;1.98;;
12519;SDS011;6325;49.540;8.364;2024-03-25T12:42:23;2.30;;;2.10;;
12519;SDS011;6325;49.540;8.364;2024-03-25T12:44:50;2.50;;;2.10;;
12519;SDS011;6325;49.540;8.364;2024-03-25T12:47:16;2.38;;;2.10;;
12519;SDS011;6325;49.540;8.364;2024-03-25T12:49:42;2.17;;;1.85;;
12519;SDS011;6325;49.540;8.364;2024-03-25T12:52:08;2.08;;;1.88;;
12519;SDS011;6325;49.540;8.364;2024-03-25T12:54:34;2.60;;;1.98;;
12519;SDS011;6325;49.540;8.364;2024-03-25T12:57:00;2.40;;;2.00;;
12519;SDS011;6325;49.540;8.364;2024-03-25T12:59:26;2.55;;;2.10;;
12519;SDS011;6325;49.540;8.364;2024-03-25T13:01:53;2.10;;;1.83;;
12519;SDS011;6325;49.540;8.364;2024-03-25T13:04:20;2.00;;;1.70;;
12519;SDS011;6325;49.540;8.364;2024-03-25T13:06:45;1.87;;;1.77;;
12519;SDS011;6325;49.540;8.364;2024-03-25T13:09:11;2.23;;;1.80;;
12519;SDS011;6325;49.540;8.364;2024-03-25T13:11:37;2.53;;;2.00;;
12519;SDS011;6325;49.540;8.364;2024-03-25T13:14:03;2.65;;;1.98;;
12519;SDS011;6325;49.540;8.364;2024-03-25T13:16:29;1.77;;;1.67;;
12519;SDS011;6325;49.540;8.364;2024-03-25T13:18:57;1.80;;;1.70;;
12519;SDS011;6325;49.540;8.364;2024-03-25T13:21:23;1.98;;;1.85;;
12519;SDS011;6325;49.540;8.364;2024-03-25T13:23:49;1.80;;;1.70;;
12519;SDS011;6325;49.540;8.364;2024-03-25T13:26:15;2.22;;;1.92;;
12519;SDS011;6325;49.540;8.364;2024-03-25T13:28:41;2.10;;;1.50;;
12519;SDS011;6325;49.540;8.364;2024-03-25T13:31:06;2.10;;;1.90;;
12519;SDS011;6325;49.540;8.364;2024-03-25T13:33:32;2.53;;;1.70;;
12519;SDS011;6325;49.540;8.364;2024-03-25T13:35:59;2.30;;;1.50;;
12519;SDS011;6325;49.540;8.364;2024-03-25T13:38:25;1.95;;;1.50;;
12519;SDS011;6325;49.540;8.364;2024-03-25T13:40:51;1.70;;;1.60;;
12519;SDS011;6325;49.540;8.364;2024-03-25T13:43:17;2.87;;;1.93;;
12519;SDS011;6325;49.540;8.364;2024-03-25T13:45:46;1.70;;;1.60;;
12519;SDS011;6325;49.540;8.364;2024-03-25T13:48:12;1.83;;;1.50;;
12519;SDS011;6325;49.540;8.364;2024-03-25T13:50:38;1.60;;;1.50;;
12519;SDS011;6325;49.540;8.364;2024-03-25T13:53:06;1.60;;;1.50;;
12519;SDS011;6325;49.540;8.364;2024-03-25T13:55:32;2.97;;;1.83;;
12519;SDS011;6325;49.540;8.364;2024-03-25T13:57:58;1.63;;;1.52;;
12519;SDS011;6325;49.540;8.364;2024-03-25T14:00:24;1.50;;;1.40;;
12519;SDS011;6325;49.540;8.364;2024-03-25T14:02:51;1.60;;;1.40;;
12519;SDS011;6325;49.540;8.364;2024-03-25T14:05:17;1.50;;;1.40;;
12519;SDS011;6325;49.540;8.364;2024-03-25T14:07:43;2.33;;;1.80;;
12519;SDS011;6325;49.540;8.364;2024-03-25T14:10:10;2.92;;;1.98;;
12519;SDS011;6325;49.540;8.364;2024-03-25T14:12:36;1.48;;;1.27;;
12519;SDS011;6325;49.540;8.364;2024-03-25T14:15:02;1.83;;;1.30;;
12519;SDS011;6325;49.540;8.364;2024-03-25T14:17:29;2.00;;;1.60;;
12519;SDS011;6325;49.540;8.364;2024-03-25T14:19:55;2.17;;;1.80;;
12519;SDS011;6325;49.540;8.364;2024-03-25T14:22:22;1.27;;;0.98;;
12519;SDS011;6325;49.540;8.364;2024-03-25T14:24:48;1.88;;;0.93;;
12519;SDS011;6325;49.540;8.364;2024-03-25T14:27:15;1.80;;;1.25;;
12519;SDS011;6325;49.540;8.364;2024-03-25T14:29:41;1.38;;;1.05;;
12519;SDS011;6325;49.540;8.364;2024-03-25T14:32:07;1.20;;;1.10;;
12519;SDS011;6325;49.540;8.364;2024-03-25T14:34:33;1.23;;;1.00;;
12519;SDS011;6325;49.540;8.364;2024-03-25T14:36:59;1.02;;;0.98;;
12519;SDS011;6325;49.540;8.364;2024-03-25T14:39:25;2.17;;;1.58;;
12519;SDS011;6325;49.540;8.364;2024-03-25T14:41:51;1.00;;;1.00;;
12519;SDS011;6325;49.540;8.364;2024-03-25T14:44:18;6.07;;;3.03;;
12519;SDS011;6325;49.540;8.364;2024-03-25T14:46:44;24.20;;;12.25;;
12519;SDS011;6325;49.540;8.364;2024-03-25T14:49:10;1.63;;;1.52;;
12519;SDS011;6325;49.540;8.364;2024-03-25T14:51:36;4.50;;;2.70;;
12519;SDS011;6325;49.540;8.364;2024-03-25T14:54:02;9.73;;;4.65;;
12519;SDS011;6325;49.540;8.364;2024-03-25T14:56:28;1.52;;;1.42;;